sensor_id;sensor_type;location;lat;lon;timestamp;P1;durP1;ratioP1;P2;durP2;ratioP2
211;SDS011;16228;48.800;9.002;2023-07-08T00:00:20;11.00;;;7.13;;
211;SDS011;16228;48.800;9.002;2023-07-08T00:02:49;8.10;;;6.37;;
211;SDS011;16228;48.800;9.002;2023-07-08T00:05:18;8.47;;;6.37;;
211;SDS011;16228;48.800;9.002;2023-07-08T00:07:46;7.80;;;5.90;;
211;SDS011;16228;48.800;9.002;2023-07-08T00:10:14;8.37;;;6.27;;
211;SDS011;16228;48.800;9.002;2023-07-08T00:12:44;6.97;;;5.90;;
211;SDS011;16228;48.800;9.002;2023-07-08T00:15:13;11.37;;;6.37;;
211;SDS011;16228;48.800;9.002;2023-07-08T00:17:42;6.83;;;6.00;;
211;SDS011;16228;48.800;9.002;2023-07-08T00:20:17;7.90;;;5.67;;
211;SDS011;16228;48.800;9.002;2023-07-08T00:22:46;9.40;;;6.10;;
211;SDS011;16228;48.800;9.002;2023-07-08T00:25:15;9.80;;;6.17;;
211;SDS011;16228;48.800;9.002;2023-07-08T00:27:42;7.93;;;6.47;;
211;SDS011;16228;48.800;9.002;2023-07-08T00:30:19;9.33;;;6.40;;
211;SDS011;16228;48.800;9.002;2023-07-08T00:32:50;8.10;;;6.07;;
211;SDS011;16228;48.800;9.002;2023-07-08T00:35:19;6.73;;;5.87;;
211;SDS011;16228;48.800;9.002;2023-07-08T00:37:48;9.30;;;6.60;;
211;SDS011;16228;48.800;9.002;2023-07-08T00:40:19;10.40;;;7.10;;
211;SDS011;16228;48.800;9.002;2023-07-08T00:42:46;7.97;;;6.40;;
211;SDS011;16228;48.800;9.002;2023-07-08T00:45:24;8.23;;;6.27;;
211;SDS011;16228;48.800;9.002;2023-07-08T00:48:03;6.50;;;5.53;;
211;SDS011;16228;48.800;9.002;2023-07-08T00:50:35;9.33;;;6.33;;
211;SDS011;16228;48.800;9.002;2023-07-08T00:55:49;7.10;;;5.90;;
211;SDS011;16228;48.800;9.002;2023-07-08T00:58:17;8.97;;;5.97;;
211;SDS011;16228;48.800;9.002;2023-07-08T01:00:48;7.93;;;5.83;;
211;SDS011;16228;48.800;9.002;2023-07-08T01:03:17;6.77;;;5.80;;
211;SDS011;16228;48.800;9.002;2023-07-08T01:05:45;8.40;;;6.47;;
211;SDS011;16228;48.800;9.002;2023-07-08T01:08:13;7.13;;;6.23;;
211;SDS011;16228;48.800;9.002;2023-07-08T01:10:42;9.47;;;6.40;;
211;SDS011;16228;48.800;9.002;2023-07-08T01:13:12;9.27;;;6.30;;
211;SDS011;16228;48.800;9.002;2023-07-08T01:15:43;7.37;;;6.50;;
211;SDS011;16228;48.800;9.002;2023-07-08T01:18:13;9.37;;;6.30;;
211;SDS011;16228;48.800;9.002;2023-07-08T01:20:43;9.07;;;6.30;;
211;SDS011;16228;48.800;9.002;2023-07-08T01:23:13;9.03;;;6.10;;
211;SDS011;16228;48.800;9.002;2023-07-08T01:25:41;7.77;;;6.13;;
211;SDS011;16228;48.800;9.002;2023-07-08T01:28:10;8.43;;;6.47;;
211;SDS011;16228;48.800;9.002;2023-07-08T01:30:38;7.37;;;6.40;;
211;SDS011;16228;48.800;9.002;2023-07-08T01:33:12;8.50;;;7.03;;
211;SDS011;16228;48.800;9.002;2023-07-08T01:35:44;9.50;;;6.53;;
211;SDS011;16228;48.800;9.002;2023-07-08T01:38:16;11.13;;;6.53;;
211;SDS011;16228;48.800;9.002;2023-07-08T01:40:48;7.87;;;5.67;;
211;SDS011;16228;48.800;9.002;2023-07-08T01:43:16;8.17;;;6.17;;
211;SDS011;16228;48.800;9.002;2023-07-08T01:45:43;9.47;;;6.73;;
211;SDS011;16228;48.800;9.002;2023-07-08T01:48:11;7.33;;;6.50;;
211;SDS011;16228;48.800;9.002;2023-07-08T01:50:41;8.33;;;6.63;;
211;SDS011;16228;48.800;9.002;2023-07-08T01:53:11;6.90;;;5.40;;
211;SDS011;16228;48.800;9.002;2023-07-08T01:55:42;8.37;;;6.60;;
211;SDS011;16228;48.800;9.002;2023-07-08T01:58:09;11.07;;;6.33;;
211;SDS011;16228;48.800;9.002;2023-07-08T02:00:36;8.33;;;6.73;;
211;SDS011;16228;48.800;9.002;2023-07-08T02:03:03;7.93;;;5.93;;
211;SDS011;16228;48.800;9.002;2023-07-08T02:05:30;7.83;;;6.17;;
211;SDS011;16228;48.800;9.002;2023-07-08T02:07:56;9.87;;;6.40;;
211;SDS011;16228;48.800;9.002;2023-07-08T02:10:23;9.67;;;6.20;;
211;SDS011;16228;48.800;9.002;2023-07-08T02:12:53;8.50;;;6.80;;
211;SDS011;16228;48.800;9.002;2023-07-08T02:15:20;9.17;;;6.37;;
211;SDS011;16228;48.800;9.002;2023-07-08T02:17:46;7.77;;;6.20;;
211;SDS011;16228;48.800;9.002;2023-07-08T02:20:14;9.43;;;6.33;;
211;SDS011;16228;48.800;9.002;2023-07-08T02:22:42;7.20;;;6.47;;
211;SDS011;16228;48.800;9.002;2023-07-08T02:25:09;8.10;;;6.73;;
211;SDS011;16228;48.800;9.002;2023-07-08T02:27:36;7.50;;;6.60;;
211;SDS011;16228;48.800;9.002;2023-07-08T02:30:05;7.93;;;6.23;;
211;SDS011;16228;48.800;9.002;2023-07-08T02:32:32;9.63;;;6.77;;
211;SDS011;16228;48.800;9.002;2023-07-08T02:34:59;9.10;;;7.07;;
211;SDS011;16228;48.800;9.002;2023-07-08T02:37:26;8.77;;;6.27;;
211;SDS011;16228;48.800;9.002;2023-07-08T02:39:53;10.27;;;7.87;;
211;SDS011;16228;48.800;9.002;2023-07-08T02:42:20;8.77;;;6.97;;
211;SDS011;16228;48.800;9.002;2023-07-08T02:44:47;9.50;;;6.77;;
211;SDS011;16228;48.800;9.002;2023-07-08T02:47:15;8.80;;;6.03;;
211;SDS011;16228;48.800;9.002;2023-07-08T02:49:42;8.37;;;6.60;;
211;SDS011;16228;48.800;9.002;2023-07-08T02:52:09;8.37;;;6.57;;
211;SDS011;16228;48.800;9.002;2023-07-08T02:54:36;7.93;;;5.77;;
211;SDS011;16228;48.800;9.002;2023-07-08T02:57:03;9.37;;;5.90;;
211;SDS011;16228;48.800;9.002;2023-07-08T02:59:30;8.27;;;6.27;;
211;SDS011;16228;48.800;9.002;2023-07-08T03:01:57;8.40;;;6.40;;
211;SDS011;16228;48.800;9.002;2023-07-08T03:04:26;8.53;;;6.33;;
211;SDS011;16228;48.800;9.002;2023-07-08T03:06:53;8.50;;;6.93;;
211;SDS011;16228;48.800;9.002;2023-07-08T03:09:20;8.33;;;6.60;;
211;SDS011;16228;48.800;9.002;2023-07-08T03:11:47;9.10;;;6.70;;
211;SDS011;16228;48.800;9.002;2023-07-08T03:14:14;8.40;;;6.80;;
211;SDS011;16228;48.800;9.002;2023-07-08T03:16:41;9.40;;;6.33;;
211;SDS011;16228;48.800;9.002;2023-07-08T03:19:09;8.43;;;6.37;;
211;SDS011;16228;48.800;9.002;2023-07-08T03:21:41;8.77;;;6.20;;
211;SDS011;16228;48.800;9.002;2023-07-08T03:24:09;10.73;;;7.33;;
211;SDS011;16228;48.800;9.002;2023-07-08T03:26:37;8.73;;;6.63;;
211;SDS011;16228;48.800;9.002;2023-07-08T03:29:04;8.20;;;6.70;;
211;SDS011;16228;48.800;9.002;2023-07-08T03:31:31;7.67;;;6.63;;
211;SDS011;16228;48.800;9.002;2023-07-08T03:33:58;8.03;;;5.97;;
211;SDS011;16228;48.800;9.002;2023-07-08T03:36:25;7.50;;;6.13;;
211;SDS011;16228;48.800;9.002;2023-07-08T03:38:54;9.47;;;6.73;;
211;SDS011;16228;48.800;9.002;2023-07-08T03:41:22;9.13;;;6.30;;
211;SDS011;16228;48.800;9.002;2023-07-08T03:43:50;9.23;;;6.47;;
211;SDS011;16228;48.800;9.002;2023-07-08T03:46:17;7.13;;;6.13;;
211;SDS011;16228;48.800;9.002;2023-07-08T03:48:46;9.20;;;7.00;;
211;SDS011;16228;48.800;9.002;2023-07-08T03:51:14;7.43;;;6.07;;
211;SDS011;16228;48.800;9.002;2023-07-08T03:53:47;9.83;;;6.17;;
211;SDS011;16228;48.800;9.002;2023-07-08T03:56:15;9.57;;;7.07;;
211;SDS011;16228;48.800;9.002;2023-07-08T03:58:42;7.73;;;6.93;;
211;SDS011;16228;48.800;9.002;2023-07-08T04:01:10;9.30;;;7.37;;
211;SDS011;16228;48.800;9.002;2023-07-08T04:03:41;7.57;;;6.50;;
211;SDS011;16228;48.800;9.002;2023-07-08T04:06:09;8.20;;;6.70;;
211;SDS011;16228;48.800;9.002;2023-07-08T04:08:36;8.10;;;6.10;;
211;SDS011;16228;48.800;9.002;2023-07-08T04:11:03;8.63;;;6.80;;
211;SDS011;16228;48.800;9.002;2023-07-08T04:13:32;7.93;;;6.33;;
211;SDS011;16228;48.800;9.002;2023-07-08T04:15:59;9.47;;;6.80;;
211;SDS011;16228;48.800;9.002;2023-07-08T04:18:29;8.63;;;6.27;;
211;SDS011;16228;48.800;9.002;2023-07-08T04:20:56;8.83;;;6.90;;
211;SDS011;16228;48.800;9.002;2023-07-08T04:23:24;9.03;;;6.57;;
211;SDS011;16228;48.800;9.002;2023-07-08T04:25:52;11.57;;;6.83;;
211;SDS011;16228;48.800;9.002;2023-07-08T04:28:22;10.07;;;7.27;;
211;SDS011;16228;48.800;9.002;2023-07-08T04:30:50;8.03;;;6.53;;
211;SDS011;16228;48.800;9.002;2023-07-08T04:33:18;7.83;;;6.37;;
211;SDS011;16228;48.800;9.002;2023-07-08T04:35:44;9.43;;;7.13;;
211;SDS011;16228;48.800;9.002;2023-07-08T04:38:14;8.40;;;6.50;;
211;SDS011;16228;48.800;9.002;2023-07-08T04:40:44;7.53;;;6.00;;
211;SDS011;16228;48.800;9.002;2023-07-08T04:43:11;6.63;;;5.77;;
211;SDS011;16228;48.800;9.002;2023-07-08T04:45:38;10.70;;;7.00;;
211;SDS011;16228;48.800;9.002;2023-07-08T04:48:08;8.90;;;6.50;;
211;SDS011;16228;48.800;9.002;2023-07-08T04:50:39;9.43;;;6.30;;
211;SDS011;16228;48.800;9.002;2023-07-08T04:53:07;8.57;;;6.30;;
211;SDS011;16228;48.800;9.002;2023-07-08T04:55:35;6.73;;;5.77;;
211;SDS011;16228;48.800;9.002;2023-07-08T04:58:02;9.03;;;6.93;;
211;SDS011;16228;48.800;9.002;2023-07-08T05:00:29;9.23;;;6.00;;
211;SDS011;16228;48.800;9.002;2023-07-08T05:02:56;8.27;;;6.67;;
211;SDS011;16228;48.800;9.002;2023-07-08T05:05:24;9.93;;;6.30;;
211;SDS011;16228;48.800;9.002;2023-07-08T05:07:52;7.77;;;5.90;;
211;SDS011;16228;48.800;9.002;2023-07-08T05:10:19;7.67;;;5.87;;
211;SDS011;16228;48.800;9.002;2023-07-08T05:12:46;9.60;;;6.63;;
211;SDS011;16228;48.800;9.002;2023-07-08T05:15:13;7.60;;;6.20;;
211;SDS011;16228;48.800;9.002;2023-07-08T05:17:41;8.77;;;6.43;;
211;SDS011;16228;48.800;9.002;2023-07-08T05:20:09;8.33;;;6.90;;
211;SDS011;16228;48.800;9.002;2023-07-08T05:22:40;8.30;;;6.90;;
211;SDS011;16228;48.800;9.002;2023-07-08T05:25:08;7.37;;;6.43;;
211;SDS011;16228;48.800;9.002;2023-07-08T05:27:35;9.77;;;5.83;;
211;SDS011;16228;48.800;9.002;2023-07-08T05:30:02;9.10;;;6.50;;
211;SDS011;16228;48.800;9.002;2023-07-08T05:32:30;7.70;;;6.00;;
211;SDS011;16228;48.800;9.002;2023-07-08T05:34:57;8.17;;;6.43;;
211;SDS011;16228;48.800;9.002;2023-07-08T05:37:24;8.67;;;6.43;;
211;SDS011;16228;48.800;9.002;2023-07-08T05:39:55;8.77;;;6.20;;
211;SDS011;16228;48.800;9.002;2023-07-08T05:42:25;7.43;;;5.70;;
211;SDS011;16228;48.800;9.002;2023-07-08T05:44:53;7.77;;;6.17;;
211;SDS011;16228;48.800;9.002;2023-07-08T05:47:20;8.77;;;5.80;;
211;SDS011;16228;48.800;9.002;2023-07-08T05:49:47;9.10;;;6.17;;
211;SDS011;16228;48.800;9.002;2023-07-08T05:52:14;7.47;;;6.60;;
211;SDS011;16228;48.800;9.002;2023-07-08T05:54:41;7.77;;;6.57;;
211;SDS011;16228;48.800;9.002;2023-07-08T05:57:10;6.47;;;5.70;;
211;SDS011;16228;48.800;9.002;2023-07-08T05:59:38;7.53;;;6.10;;
211;SDS011;16228;48.800;9.002;2023-07-08T06:02:05;6.80;;;5.27;;
211;SDS011;16228;48.800;9.002;2023-07-08T06:04:32;8.43;;;6.17;;
211;SDS011;16228;48.800;9.002;2023-07-08T06:06:59;6.23;;;5.47;;
211;SDS011;16228;48.800;9.002;2023-07-08T06:09:26;7.00;;;5.63;;
211;SDS011;16228;48.800;9.002;2023-07-08T06:11:53;6.47;;;5.20;;
211;SDS011;16228;48.800;9.002;2023-07-08T06:14:22;6.70;;;5.70;;
211;SDS011;16228;48.800;9.002;2023-07-08T06:16:49;7.03;;;5.87;;
211;SDS011;16228;48.800;9.002;2023-07-08T06:19:16;6.93;;;5.37;;
211;SDS011;16228;48.800;9.002;2023-07-08T06:21:43;8.40;;;6.17;;
211;SDS011;16228;48.800;9.002;2023-07-08T06:24:10;6.43;;;4.77;;
211;SDS011;16228;48.800;9.002;2023-07-08T06:26:37;6.97;;;5.40;;
211;SDS011;16228;48.800;9.002;2023-07-08T06:29:04;7.90;;;5.73;;
211;SDS011;16228;48.800;9.002;2023-07-08T06:31:33;6.63;;;5.47;;
211;SDS011;16228;48.800;9.002;2023-07-08T06:34:00;7.03;;;5.33;;
211;SDS011;16228;48.800;9.002;2023-07-08T06:36:27;5.57;;;4.90;;
211;SDS011;16228;48.800;9.002;2023-07-08T06:38:54;7.47;;;5.50;;
211;SDS011;16228;48.800;9.002;2023-07-08T06:41:21;6.40;;;5.03;;
211;SDS011;16228;48.800;9.002;2023-07-08T06:43:48;7.80;;;4.77;;
211;SDS011;16228;48.800;9.002;2023-07-08T06:46:15;5.17;;;4.60;;
211;SDS011;16228;48.800;9.002;2023-07-08T06:48:45;6.47;;;4.83;;
211;SDS011;16228;48.800;9.002;2023-07-08T06:51:12;6.70;;;4.97;;
211;SDS011;16228;48.800;9.002;2023-07-08T06:53:39;6.10;;;4.70;;
211;SDS011;16228;48.800;9.002;2023-07-08T06:56:06;4.47;;;3.90;;
211;SDS011;16228;48.800;9.002;2023-07-08T06:58:33;4.67;;;4.17;;
211;SDS011;16228;48.800;9.002;2023-07-08T07:01:00;7.17;;;4.03;;
211;SDS011;16228;48.800;9.002;2023-07-08T07:03:27;4.47;;;3.90;;
211;SDS011;16228;48.800;9.002;2023-07-08T07:05:55;4.33;;;3.93;;
211;SDS011;16228;48.800;9.002;2023-07-08T07:08:22;5.23;;;3.47;;
211;SDS011;16228;48.800;9.002;2023-07-08T07:10:49;4.77;;;3.60;;
211;SDS011;16228;48.800;9.002;2023-07-08T07:13:16;4.20;;;3.40;;
211;SDS011;16228;48.800;9.002;2023-07-08T07:15:43;3.70;;;3.40;;
211;SDS011;16228;48.800;9.002;2023-07-08T07:18:10;3.97;;;3.03;;
211;SDS011;16228;48.800;9.002;2023-07-08T07:20:38;5.10;;;3.70;;
211;SDS011;16228;48.800;9.002;2023-07-08T07:23:06;6.57;;;3.70;;
211;SDS011;16228;48.800;9.002;2023-07-08T07:25:33;4.23;;;3.30;;
211;SDS011;16228;48.800;9.002;2023-07-08T07:28:05;5.23;;;3.50;;
211;SDS011;16228;48.800;9.002;2023-07-08T07:30:33;3.70;;;2.90;;
211;SDS011;16228;48.800;9.002;2023-07-08T07:33:00;6.13;;;3.40;;
211;SDS011;16228;48.800;9.002;2023-07-08T07:35:27;3.93;;;3.33;;
211;SDS011;16228;48.800;9.002;2023-07-08T07:37:54;3.27;;;2.97;;
211;SDS011;16228;48.800;9.002;2023-07-08T07:40:22;4.93;;;3.53;;
211;SDS011;16228;48.800;9.002;2023-07-08T07:42:49;5.83;;;3.47;;
211;SDS011;16228;48.800;9.002;2023-07-08T07:45:16;3.67;;;3.13;;
211;SDS011;16228;48.800;9.002;2023-07-08T07:47:45;4.10;;;3.43;;
211;SDS011;16228;48.800;9.002;2023-07-08T07:50:12;4.07;;;3.57;;
211;SDS011;16228;48.800;9.002;2023-07-08T07:52:38;6.03;;;2.90;;
211;SDS011;16228;48.800;9.002;2023-07-08T07:55:06;4.32;;;2.40;;
211;SDS011;16228;48.800;9.002;2023-07-08T07:57:35;3.13;;;2.67;;
211;SDS011;16228;48.800;9.002;2023-07-08T08:00:03;3.35;;;2.30;;
211;SDS011;16228;48.800;9.002;2023-07-08T08:02:30;3.63;;;2.55;;
211;SDS011;16228;48.800;9.002;2023-07-08T08:04:57;3.53;;;2.50;;
211;SDS011;16228;48.800;9.002;2023-07-08T08:07:24;3.30;;;2.30;;
211;SDS011;16228;48.800;9.002;2023-07-08T08:09:51;6.72;;;2.97;;
211;SDS011;16228;48.800;9.002;2023-07-08T08:12:18;3.58;;;2.85;;
211;SDS011;16228;48.800;9.002;2023-07-08T08:14:48;3.72;;;2.50;;
211;SDS011;16228;48.800;9.002;2023-07-08T08:17:15;4.47;;;2.55;;
211;SDS011;16228;48.800;9.002;2023-07-08T08:19:42;3.13;;;2.40;;
211;SDS011;16228;48.800;9.002;2023-07-08T08:22:09;3.75;;;2.72;;
211;SDS011;16228;48.800;9.002;2023-07-08T08:24:36;3.92;;;2.65;;
211;SDS011;16228;48.800;9.002;2023-07-08T08:27:03;5.63;;;2.60;;
211;SDS011;16228;48.800;9.002;2023-07-08T08:29:31;3.28;;;2.58;;
211;SDS011;16228;48.800;9.002;2023-07-08T08:32:00;4.32;;;2.60;;
211;SDS011;16228;48.800;9.002;2023-07-08T08:34:26;3.92;;;2.15;;
211;SDS011;16228;48.800;9.002;2023-07-08T08:36:53;5.63;;;2.55;;
211;SDS011;16228;48.800;9.002;2023-07-08T08:39:21;3.10;;;2.10;;
211;SDS011;16228;48.800;9.002;2023-07-08T08:41:48;2.78;;;2.35;;
211;SDS011;16228;48.800;9.002;2023-07-08T08:44:20;2.95;;;2.25;;
211;SDS011;16228;48.800;9.002;2023-07-08T08:46:54;3.15;;;2.22;;
211;SDS011;16228;48.800;9.002;2023-07-08T08:49:29;1.60;;;1.50;;
211;SDS011;16228;48.800;9.002;2023-07-08T08:52:02;3.35;;;2.20;;
211;SDS011;16228;48.800;9.002;2023-07-08T08:54:30;1.95;;;1.77;;
211;SDS011;16228;48.800;9.002;2023-07-08T08:56:59;2.72;;;2.35;;
211;SDS011;16228;48.800;9.002;2023-07-08T08:59:33;1.95;;;1.70;;
211;SDS011;16228;48.800;9.002;2023-07-08T09:02:14;2.78;;;1.60;;
211;SDS011;16228;48.800;9.002;2023-07-08T09:04:53;4.28;;;1.90;;
211;SDS011;16228;48.800;9.002;2023-07-08T09:07:21;4.30;;;2.30;;
211;SDS011;16228;48.800;9.002;2023-07-08T09:09:50;4.35;;;1.92;;
211;SDS011;16228;48.800;9.002;2023-07-08T09:12:25;2.38;;;2.08;;
211;SDS011;16228;48.800;9.002;2023-07-08T09:14:53;2.53;;;1.92;;
211;SDS011;16228;48.800;9.002;2023-07-08T09:17:23;4.00;;;2.10;;
211;SDS011;16228;48.800;9.002;2023-07-08T09:19:59;2.60;;;1.80;;
211;SDS011;16228;48.800;9.002;2023-07-08T09:22:34;2.78;;;2.00;;
211;SDS011;16228;48.800;9.002;2023-07-08T09:25:19;2.65;;;1.85;;
211;SDS011;16228;48.800;9.002;2023-07-08T09:27:50;3.58;;;2.03;;
211;SDS011;16228;48.800;9.002;2023-07-08T09:30:18;2.60;;;2.00;;
211;SDS011;16228;48.800;9.002;2023-07-08T09:32:47;2.03;;;1.65;;
211;SDS011;16228;48.800;9.002;2023-07-08T09:35:18;3.63;;;1.80;;
211;SDS011;16228;48.800;9.002;2023-07-08T09:37:48;3.03;;;2.25;;
211;SDS011;16228;48.800;9.002;2023-07-08T09:40:16;2.10;;;1.90;;
211;SDS011;16228;48.800;9.002;2023-07-08T09:42:48;2.55;;;1.60;;
211;SDS011;16228;48.800;9.002;2023-07-08T09:45:18;2.22;;;1.85;;
211;SDS011;16228;48.800;9.002;2023-07-08T09:47:46;2.47;;;2.28;;
211;SDS011;16228;48.800;9.002;2023-07-08T09:50:20;4.25;;;2.70;;
211;SDS011;16228;48.800;9.002;2023-07-08T09:52:49;3.25;;;2.13;;
211;SDS011;16228;48.800;9.002;2023-07-08T09:55:17;3.03;;;2.60;;
211;SDS011;16228;48.800;9.002;2023-07-08T09:57:45;2.83;;;2.58;;
211;SDS011;16228;48.800;9.002;2023-07-08T10:00:15;2.67;;;2.47;;
211;SDS011;16228;48.800;9.002;2023-07-08T10:02:45;3.63;;;2.60;;
211;SDS011;16228;48.800;9.002;2023-07-08T10:05:17;3.67;;;2.80;;
211;SDS011;16228;48.800;9.002;2023-07-08T10:07:48;3.20;;;2.90;;
211;SDS011;16228;48.800;9.002;2023-07-08T10:10:21;3.42;;;2.40;;
211;SDS011;16228;48.800;9.002;2023-07-08T10:12:55;3.47;;;2.55;;
211;SDS011;16228;48.800;9.002;2023-07-08T10:15:25;4.05;;;2.75;;
211;SDS011;16228;48.800;9.002;2023-07-08T10:17:55;2.90;;;2.58;;
211;SDS011;16228;48.800;9.002;2023-07-08T10:20:24;2.92;;;2.53;;
211;SDS011;16228;48.800;9.002;2023-07-08T10:23:05;3.10;;;2.10;;
211;SDS011;16228;48.800;9.002;2023-07-08T10:25:42;2.65;;;2.25;;
211;SDS011;16228;48.800;9.002;2023-07-08T10:28:21;2.60;;;2.17;;
211;SDS011;16228;48.800;9.002;2023-07-08T10:30:58;1.95;;;1.75;;
211;SDS011;16228;48.800;9.002;2023-07-08T10:36:47;2.58;;;2.38;;
211;SDS011;16228;48.800;9.002;2023-07-08T10:42:14;2.55;;;2.00;;
211;SDS011;16228;48.800;9.002;2023-07-08T10:44:50;3.20;;;1.90;;
211;SDS011;16228;48.800;9.002;2023-07-08T10:47:28;3.05;;;2.20;;
211;SDS011;16228;48.800;9.002;2023-07-08T10:50:20;2.13;;;1.98;;
211;SDS011;16228;48.800;9.002;2023-07-08T10:53:17;2.33;;;2.08;;
211;SDS011;16228;48.800;9.002;2023-07-08T10:55:58;4.63;;;2.35;;
211;SDS011;16228;48.800;9.002;2023-07-08T10:58:33;3.50;;;2.58;;
211;SDS011;16228;48.800;9.002;2023-07-08T11:01:15;3.35;;;2.40;;
211;SDS011;16228;48.800;9.002;2023-07-08T11:04:01;2.45;;;2.20;;
211;SDS011;16228;48.800;9.002;2023-07-08T11:06:40;2.20;;;2.00;;
211;SDS011;16228;48.800;9.002;2023-07-08T11:09:15;4.35;;;2.50;;
211;SDS011;16228;48.800;9.002;2023-07-08T11:11:49;2.60;;;2.38;;
211;SDS011;16228;48.800;9.002;2023-07-08T11:14:20;2.78;;;2.28;;
211;SDS011;16228;48.800;9.002;2023-07-08T11:16:52;2.88;;;2.15;;
211;SDS011;16228;48.800;9.002;2023-07-08T11:19:30;2.75;;;2.55;;
211;SDS011;16228;48.800;9.002;2023-07-08T11:22:02;2.53;;;2.33;;
211;SDS011;16228;48.800;9.002;2023-07-08T11:24:37;3.22;;;2.92;;
211;SDS011;16228;48.800;9.002;2023-07-08T11:27:11;3.25;;;2.70;;
211;SDS011;16228;48.800;9.002;2023-07-08T11:29:45;2.40;;;2.20;;
211;SDS011;16228;48.800;9.002;2023-07-08T11:32:15;2.53;;;1.83;;
211;SDS011;16228;48.800;9.002;2023-07-08T11:34:46;2.85;;;2.22;;
211;SDS011;16228;48.800;9.002;2023-07-08T11:37:17;4.18;;;2.28;;
211;SDS011;16228;48.800;9.002;2023-07-08T11:39:52;3.03;;;2.22;;
211;SDS011;16228;48.800;9.002;2023-07-08T11:42:21;4.07;;;2.58;;
211;SDS011;16228;48.800;9.002;2023-07-08T11:44:50;3.97;;;2.53;;
211;SDS011;16228;48.800;9.002;2023-07-08T11:47:22;2.72;;;2.50;;
211;SDS011;16228;48.800;9.002;2023-07-08T11:49:52;2.47;;;2.28;;
211;SDS011;16228;48.800;9.002;2023-07-08T11:52:20;2.83;;;2.55;;
211;SDS011;16228;48.800;9.002;2023-07-08T11:54:56;3.03;;;2.72;;
211;SDS011;16228;48.800;9.002;2023-07-08T11:57:29;3.90;;;2.20;;
211;SDS011;16228;48.800;9.002;2023-07-08T12:00:13;3.08;;;2.35;;
211;SDS011;16228;48.800;9.002;2023-07-08T12:02:53;2.85;;;2.55;;
211;SDS011;16228;48.800;9.002;2023-07-08T12:08:11;5.53;;;2.60;;
211;SDS011;16228;48.800;9.002;2023-07-08T12:10:41;3.10;;;2.40;;
211;SDS011;16228;48.800;9.002;2023-07-08T12:13:13;2.92;;;2.15;;
211;SDS011;16228;48.800;9.002;2023-07-08T12:15:41;2.72;;;2.40;;
211;SDS011;16228;48.800;9.002;2023-07-08T12:18:11;4.85;;;2.53;;
211;SDS011;16228;48.800;9.002;2023-07-08T12:20:41;2.50;;;2.30;;
211;SDS011;16228;48.800;9.002;2023-07-08T12:23:12;1.95;;;1.80;;
211;SDS011;16228;48.800;9.002;2023-07-08T12:25:42;3.25;;;2.63;;
211;SDS011;16228;48.800;9.002;2023-07-08T12:28:10;2.42;;;1.90;;
211;SDS011;16228;48.800;9.002;2023-07-08T12:30:38;2.75;;;2.20;;
211;SDS011;16228;48.800;9.002;2023-07-08T12:33:09;2.95;;;2.10;;
211;SDS011;16228;48.800;9.002;2023-07-08T12:35:40;2.60;;;2.40;;
211;SDS011;16228;48.800;9.002;2023-07-08T12:38:12;2.70;;;1.98;;
211;SDS011;16228;48.800;9.002;2023-07-08T12:40:46;4.07;;;2.30;;
211;SDS011;16228;48.800;9.002;2023-07-08T12:43:13;2.30;;;2.05;;
211;SDS011;16228;48.800;9.002;2023-07-08T12:45:42;3.50;;;2.75;;
211;SDS011;16228;48.800;9.002;2023-07-08T12:48:09;3.95;;;2.55;;
211;SDS011;16228;48.800;9.002;2023-07-08T12:50:36;2.78;;;2.20;;
211;SDS011;16228;48.800;9.002;2023-07-08T12:53:04;5.15;;;2.88;;
211;SDS011;16228;48.800;9.002;2023-07-08T12:55:35;3.35;;;2.72;;
211;SDS011;16228;48.800;9.002;2023-07-08T12:58:05;3.75;;;3.13;;
211;SDS011;16228;48.800;9.002;2023-07-08T13:00:37;4.22;;;2.90;;
211;SDS011;16228;48.800;9.002;2023-07-08T13:03:07;4.00;;;2.78;;
211;SDS011;16228;48.800;9.002;2023-07-08T13:05:39;3.20;;;2.53;;
211;SDS011;16228;48.800;9.002;2023-07-08T13:08:08;4.32;;;2.97;;
211;SDS011;16228;48.800;9.002;2023-07-08T13:10:38;3.92;;;2.35;;
211;SDS011;16228;48.800;9.002;2023-07-08T13:13:08;6.53;;;2.60;;
211;SDS011;16228;48.800;9.002;2023-07-08T13:15:40;4.53;;;2.63;;
211;SDS011;16228;48.800;9.002;2023-07-08T13:18:09;3.17;;;2.25;;
211;SDS011;16228;48.800;9.002;2023-07-08T13:20:41;5.18;;;2.47;;
211;SDS011;16228;48.800;9.002;2023-07-08T13:23:09;4.35;;;2.45;;
211;SDS011;16228;48.800;9.002;2023-07-08T13:25:38;2.58;;;2.10;;
211;SDS011;16228;48.800;9.002;2023-07-08T13:28:16;2.75;;;2.55;;
211;SDS011;16228;48.800;9.002;2023-07-08T13:30:51;7.55;;;2.50;;
211;SDS011;16228;48.800;9.002;2023-07-08T13:33:19;2.65;;;2.15;;
211;SDS011;16228;48.800;9.002;2023-07-08T13:35:47;3.03;;;1.98;;
211;SDS011;16228;48.800;9.002;2023-07-08T13:38:15;3.08;;;2.08;;
211;SDS011;16228;48.800;9.002;2023-07-08T13:40:48;3.97;;;1.98;;
211;SDS011;16228;48.800;9.002;2023-07-08T13:43:24;2.20;;;2.00;;
211;SDS011;16228;48.800;9.002;2023-07-08T13:45:52;2.75;;;2.55;;
211;SDS011;16228;48.800;9.002;2023-07-08T13:48:21;2.42;;;2.20;;
211;SDS011;16228;48.800;9.002;2023-07-08T13:50:53;4.90;;;2.80;;
211;SDS011;16228;48.800;9.002;2023-07-08T13:53:24;2.95;;;2.65;;
211;SDS011;16228;48.800;9.002;2023-07-08T13:55:56;2.90;;;2.58;;
211;SDS011;16228;48.800;9.002;2023-07-08T13:58:28;2.45;;;2.25;;
211;SDS011;16228;48.800;9.002;2023-07-08T14:00:56;5.07;;;2.95;;
211;SDS011;16228;48.800;9.002;2023-07-08T14:03:24;2.85;;;2.35;;
211;SDS011;16228;48.800;9.002;2023-07-08T14:05:51;3.95;;;2.75;;
211;SDS011;16228;48.800;9.002;2023-07-08T14:08:18;2.55;;;2.35;;
211;SDS011;16228;48.800;9.002;2023-07-08T14:10:47;2.85;;;2.55;;
211;SDS011;16228;48.800;9.002;2023-07-08T14:13:14;2.90;;;2.60;;
211;SDS011;16228;48.800;9.002;2023-07-08T14:15:44;4.38;;;2.72;;
211;SDS011;16228;48.800;9.002;2023-07-08T14:18:11;3.92;;;2.58;;
211;SDS011;16228;48.800;9.002;2023-07-08T14:20:39;3.03;;;2.72;;
211;SDS011;16228;48.800;9.002;2023-07-08T14:23:08;3.63;;;2.88;;
211;SDS011;16228;48.800;9.002;2023-07-08T14:25:36;5.50;;;2.22;;
211;SDS011;16228;48.800;9.002;2023-07-08T14:28:03;5.70;;;2.92;;
211;SDS011;16228;48.800;9.002;2023-07-08T14:30:31;4.53;;;2.83;;
211;SDS011;16228;48.800;9.002;2023-07-08T14:33:00;2.90;;;2.67;;
211;SDS011;16228;48.800;9.002;2023-07-08T14:35:28;4.82;;;2.67;;
211;SDS011;16228;48.800;9.002;2023-07-08T14:37:56;6.80;;;3.15;;
211;SDS011;16228;48.800;9.002;2023-07-08T14:40:25;4.00;;;2.67;;
211;SDS011;16228;48.800;9.002;2023-07-08T14:42:57;3.33;;;2.50;;
211;SDS011;16228;48.800;9.002;2023-07-08T14:45:26;4.83;;;2.70;;
211;SDS011;16228;48.800;9.002;2023-07-08T14:47:55;3.20;;;2.90;;
211;SDS011;16228;48.800;9.002;2023-07-08T14:50:23;3.47;;;2.47;;
211;SDS011;16228;48.800;9.002;2023-07-08T14:52:54;2.83;;;2.10;;
211;SDS011;16228;48.800;9.002;2023-07-08T14:55:21;3.92;;;2.50;;
211;SDS011;16228;48.800;9.002;2023-07-08T14:57:48;3.20;;;2.90;;
211;SDS011;16228;48.800;9.002;2023-07-08T15:00:16;2.92;;;2.67;;
211;SDS011;16228;48.800;9.002;2023-07-08T15:02:45;3.80;;;2.58;;
211;SDS011;16228;48.800;9.002;2023-07-08T15:05:14;4.53;;;2.55;;
211;SDS011;16228;48.800;9.002;2023-07-08T15:07:57;3.40;;;3.08;;
211;SDS011;16228;48.800;9.002;2023-07-08T15:10:28;3.50;;;2.50;;
211;SDS011;16228;48.800;9.002;2023-07-08T15:12:57;4.00;;;3.58;;
211;SDS011;16228;48.800;9.002;2023-07-08T15:15:40;3.70;;;2.30;;
211;SDS011;16228;48.800;9.002;2023-07-08T15:18:19;3.20;;;2.88;;
211;SDS011;16228;48.800;9.002;2023-07-08T15:20:55;3.72;;;2.58;;
211;SDS011;16228;48.800;9.002;2023-07-08T15:23:40;2.80;;;2.60;;
211;SDS011;16228;48.800;9.002;2023-07-08T15:26:39;4.88;;;2.92;;
211;SDS011;16228;48.800;9.002;2023-07-08T15:29:22;2.47;;;2.28;;
211;SDS011;16228;48.800;9.002;2023-07-08T15:32:09;3.30;;;1.90;;
211;SDS011;16228;48.800;9.002;2023-07-08T15:35:07;3.85;;;2.70;;
211;SDS011;16228;48.800;9.002;2023-07-08T15:37:42;3.50;;;3.20;;
211;SDS011;16228;48.800;9.002;2023-07-08T15:40:16;3.47;;;2.38;;
211;SDS011;16228;48.800;9.002;2023-07-08T15:42:58;3.92;;;2.40;;